Accueil
METAR-TAF:

METAR-TAF

Aéroports :

Kastamonu, Turquie

latitude: 41-19-01N, longitude: 33-47-46E, altitude: 1073 m

Observation

Le bulletin a été fait il y a 42 minutes, à 06:50 UTC
Vent 2 kt de direction variable
Température 15°C
Humidité 88%
Pression 1021 hPa
Visibilité: 2500 m
Quelques nuages à une hauteur de 2000 ft
brume

METAR: LTAL 170650Z VRB02KT 2500 BR FEW020 15/13 Q1021

Heure: 10:32 (07:32 UTC)

Prévision

Le bulletin a été fait il y a 2 heures et 52 minutes, à 04:40 UTC
Prévision valable du 17 à 06 UTC au 17 à 15 UTC
Vent 2 kt de direction variable
Visibilité: 0600 m
à une hauteur de 200 ft
brouillard
Evoluant progressivement
du 17 à 07 UTC au 17 à 09 UTC
Visibilité: 2500 m
Quelques nuages à une hauteur de 800 ft
Nuages épars à une hauteur de 3000 ft
brume

TAF: LTAL 170440Z 1706/1715 VRB02KT 0600 FG VV002 BECMG 1707/1709 2500 BR FEW008 SCT030

Observations et prévisions météorologiques de plus de 4000 aéroports (messages METAR et TAF).

Les stations disponibles sont représentées par des disques jaunes et rouges sur la carte.

Passer la souris dessus pour voir le nom de la station.

Cliquer dessus pour voir les observations et prévisions météorologiques.

Pour changer de carte: cliquez sur les boutons verts avec une croix noire pour zoomer, sur le bouton vert avec un tiret pour effectuer un zoom arrière, ou sur les flèches vertes pour les cartes adjacentes.


METAR-TAF: